sensor_id;sensor_type;location;lat;lon;timestamp;pressure;altitude;pressure_sealevel;temperature;humidity
7018;BME280;3549;42.162;24.726;2023-06-14T00:01:24;47351.88;;;-141.97;78.92
7018;BME280;3549;42.162;24.726;2023-06-14T00:03:49;47811.25;;;-141.97;79.40
7018;BME280;3549;42.162;24.726;2023-06-14T00:06:21;47605.56;;;-141.97;79.49
7018;BME280;3549;42.162;24.726;2023-06-14T00:08:46;47619.03;;;-141.97;79.70
7018;BME280;3549;42.162;24.726;2023-06-14T00:11:12;47396.06;;;-141.97;79.53
7018;BME280;3549;42.162;24.726;2023-06-14T00:13:37;47686.31;;;-141.97;79.64
7018;BME280;3549;42.162;24.726;2023-06-14T00:16:04;47472.94;;;-141.97;79.90
7018;BME280;3549;42.162;24.726;2023-06-14T00:18:29;47503.69;;;-141.97;79.90
7018;BME280;3549;42.162;24.726;2023-06-14T00:20:56;47730.50;;;-141.97;79.52
7018;BME280;3549;42.162;24.726;2023-06-14T00:23:21;47386.47;;;-141.97;79.43
7018;BME280;3549;42.162;24.726;2023-06-14T00:25:47;47695.91;;;-141.97;79.75
7018;BME280;3549;42.162;24.726;2023-06-14T00:28:13;47640.16;;;-141.97;80.00
7018;BME280;3549;42.162;24.726;2023-06-14T00:30:38;47542.16;;;-141.97;80.37
7018;BME280;3549;42.162;24.726;2023-06-14T00:33:04;47619.03;;;-141.97;81.00
7018;BME280;3549;42.162;24.726;2023-06-14T00:35:29;47611.34;;;-141.97;80.73
7018;BME280;3549;42.162;24.726;2023-06-14T00:37:55;47718.97;;;-141.97;80.94
7018;BME280;3549;42.162;24.726;2023-06-14T00:40:21;47845.84;;;-141.97;80.84
7018;BME280;3549;42.162;24.726;2023-06-14T00:42:46;47503.69;;;-141.97;81.03
7018;BME280;3549;42.162;24.726;2023-06-14T00:45:12;47515.22;;;-141.97;82.09
7018;BME280;3549;42.162;24.726;2023-06-14T00:47:38;47597.88;;;-141.97;82.20
7018;BME280;3549;42.162;24.726;2023-06-14T00:50:07;47697.84;;;-141.97;82.35
7018;BME280;3549;42.162;24.726;2023-06-14T00:52:33;47567.13;;;-141.97;82.24
7018;BME280;3549;42.162;24.726;2023-06-14T00:55:00;47730.50;;;-141.97;83.05
7018;BME280;3549;42.162;24.726;2023-06-14T00:57:26;47609.41;;;-141.97;83.09
7018;BME280;3549;42.162;24.726;2023-06-14T00:59:52;47845.84;;;-141.97;83.58
7018;BME280;3549;42.162;24.726;2023-06-14T01:02:18;47484.47;;;-141.97;83.13
7018;BME280;3549;42.162;24.726;2023-06-14T01:04:46;47642.09;;;-141.97;83.74
7018;BME280;3549;42.162;24.726;2023-06-14T01:15:08;47640.16;;;-141.97;83.85
7018;BME280;3549;42.162;24.726;2023-06-14T01:17:35;47863.13;;;-141.97;83.57
7018;BME280;3549;42.162;24.726;2023-06-14T01:20:02;47457.56;;;-141.97;83.45
7018;BME280;3549;42.162;24.726;2023-06-14T01:22:29;47642.09;;;-141.97;83.36
7018;BME280;3549;42.162;24.726;2023-06-14T01:24:55;47570.97;;;-141.97;83.71
7018;BME280;3549;42.162;24.726;2023-06-14T01:27:24;47603.66;;;-141.97;84.00
7018;BME280;3549;42.162;24.726;2023-06-14T01:29:54;47694.00;;;-141.97;84.20
7018;BME280;3549;42.162;24.726;2023-06-14T01:32:23;47659.38;;;-141.97;84.47
7018;BME280;3549;42.162;24.726;2023-06-14T01:34:50;47657.47;;;-141.97;84.43
7018;BME280;3549;42.162;24.726;2023-06-14T01:37:16;47647.84;;;-141.97;84.42
7018;BME280;3549;42.162;24.726;2023-06-14T01:39:43;47657.47;;;-141.97;84.71
7018;BME280;3549;42.162;24.726;2023-06-14T01:42:09;47645.94;;;-141.97;84.95
7018;BME280;3549;42.162;24.726;2023-06-14T01:44:36;47561.38;;;-141.97;85.48
7018;BME280;3549;42.162;24.726;2023-06-14T01:47:02;47647.84;;;-141.97;85.58
7018;BME280;3549;42.162;24.726;2023-06-14T01:49:28;47572.91;;;-141.97;85.53
7018;BME280;3549;42.162;24.726;2023-06-14T01:51:53;47809.31;;;-141.97;85.39
7018;BME280;3549;42.162;24.726;2023-06-14T01:54:19;47628.63;;;-141.97;85.44
7018;BME280;3549;42.162;24.726;2023-06-14T01:56:44;47661.31;;;-141.97;85.58
7018;BME280;3549;42.162;24.726;2023-06-14T01:59:10;47630.56;;;-141.97;85.17
7018;BME280;3549;42.162;24.726;2023-06-14T02:01:35;47649.78;;;-141.97;85.41
7018;BME280;3549;42.162;24.726;2023-06-14T02:04:07;47430.66;;;-141.97;85.62
7018;BME280;3549;42.162;24.726;2023-06-14T02:06:33;47469.09;;;-141.97;85.63
7018;BME280;3549;42.162;24.726;2023-06-14T02:09:08;47699.75;;;-141.97;85.16
7018;BME280;3549;42.162;24.726;2023-06-14T02:11:33;47669.00;;;-141.97;85.01
7018;BME280;3549;42.162;24.726;2023-06-14T02:13:59;47665.16;;;-141.97;85.02
7018;BME280;3549;42.162;24.726;2023-06-14T02:16:25;47524.84;;;-141.97;84.96
7018;BME280;3549;42.162;24.726;2023-06-14T02:18:53;47657.47;;;-141.97;85.14
7018;BME280;3549;42.162;24.726;2023-06-14T02:21:18;47659.38;;;-141.97;85.21
7018;BME280;3549;42.162;24.726;2023-06-14T02:23:43;47772.78;;;-141.97;84.33
7018;BME280;3549;42.162;24.726;2023-06-14T02:26:09;47667.06;;;-141.97;84.07
7018;BME280;3549;42.162;24.726;2023-06-14T02:28:34;47565.22;;;-141.97;84.35
7018;BME280;3549;42.162;24.726;2023-06-14T02:31:01;47615.19;;;-141.97;83.99
7018;BME280;3549;42.162;24.726;2023-06-14T02:33:29;47567.13;;;-141.97;83.94
7018;BME280;3549;42.162;24.726;2023-06-14T02:35:54;47492.16;;;-141.97;83.73
7018;BME280;3549;42.162;24.726;2023-06-14T02:38:30;47776.63;;;-141.97;83.76
7018;BME280;3549;42.162;24.726;2023-06-14T02:40:55;47692.06;;;-141.97;83.82
7018;BME280;3549;42.162;24.726;2023-06-14T02:43:21;47674.78;;;-141.97;84.14
7018;BME280;3549;42.162;24.726;2023-06-14T02:45:49;47742.03;;;-141.97;85.21
7018;BME280;3549;42.162;24.726;2023-06-14T02:48:14;47918.88;;;-141.97;85.48
7018;BME280;3549;42.162;24.726;2023-06-14T02:50:43;47446.03;;;-141.97;86.84
7018;BME280;3549;42.162;24.726;2023-06-14T02:53:08;47426.81;;;-141.97;86.89
7018;BME280;3549;42.162;24.726;2023-06-14T02:55:34;47521.00;;;-141.97;87.07
7018;BME280;3549;42.162;24.726;2023-06-14T02:58:05;47676.69;;;-141.97;87.14
7018;BME280;3549;42.162;24.726;2023-06-14T03:00:33;47488.31;;;-141.97;86.92
7018;BME280;3549;42.162;24.726;2023-06-14T03:03:00;47542.16;;;-141.97;86.52
7018;BME280;3549;42.162;24.726;2023-06-14T03:05:27;47657.47;;;-141.97;86.08
7018;BME280;3549;42.162;24.726;2023-06-14T03:07:53;47669.00;;;-141.97;86.00
7018;BME280;3549;42.162;24.726;2023-06-14T03:10:22;47521.00;;;-141.97;86.36
7018;BME280;3549;42.162;24.726;2023-06-14T03:12:47;47665.16;;;-141.97;86.29
7018;BME280;3549;42.162;24.726;2023-06-14T03:15:13;47411.44;;;-141.97;85.79
7018;BME280;3549;42.162;24.726;2023-06-14T03:17:39;47428.75;;;-141.97;84.72
7018;BME280;3549;42.162;24.726;2023-06-14T03:20:05;47805.47;;;-141.97;84.06
7018;BME280;3549;42.162;24.726;2023-06-14T03:22:31;47757.41;;;-141.97;83.31
7018;BME280;3549;42.162;24.726;2023-06-14T03:24:59;47492.16;;;-141.97;83.37
7018;BME280;3549;42.162;24.726;2023-06-14T03:27:25;47588.28;;;-141.97;82.90
7018;BME280;3549;42.162;24.726;2023-06-14T03:29:57;47461.41;;;-141.97;82.42
7018;BME280;3549;42.162;24.726;2023-06-14T03:32:22;47578.66;;;-141.97;81.63
7018;BME280;3549;42.162;24.726;2023-06-14T03:34:47;47738.19;;;-141.97;82.16
7018;BME280;3549;42.162;24.726;2023-06-14T03:37:13;47570.97;;;-141.97;82.64
7018;BME280;3549;42.162;24.726;2023-06-14T03:39:38;47490.25;;;-141.97;83.39
7018;BME280;3549;42.162;24.726;2023-06-14T03:42:11;47432.59;;;-141.97;83.28
7018;BME280;3549;42.162;24.726;2023-06-14T03:44:36;47813.16;;;-141.97;83.16
7018;BME280;3549;42.162;24.726;2023-06-14T03:47:02;47780.47;;;-141.97;83.57
7018;BME280;3549;42.162;24.726;2023-06-14T03:49:27;47513.31;;;-141.97;83.56
7018;BME280;3549;42.162;24.726;2023-06-14T03:51:55;47632.47;;;-141.97;83.19
7018;BME280;3549;42.162;24.726;2023-06-14T03:54:24;47684.38;;;-141.97;83.15
7018;BME280;3549;42.162;24.726;2023-06-14T03:56:49;47501.78;;;-141.97;82.49
7018;BME280;3549;42.162;24.726;2023-06-14T03:59:15;47669.00;;;-141.97;82.64
7018;BME280;3549;42.162;24.726;2023-06-14T04:01:40;47669.00;;;-141.97;81.90
7018;BME280;3549;42.162;24.726;2023-06-14T04:04:11;47657.47;;;-141.97;81.69
7018;BME280;3549;42.162;24.726;2023-06-14T04:06:37;47653.63;;;-141.97;81.39
7018;BME280;3549;42.162;24.726;2023-06-14T04:09:02;47642.09;;;-141.97;81.49
7018;BME280;3549;42.162;24.726;2023-06-14T04:11:28;47684.38;;;-141.97;81.14
7018;BME280;3549;42.162;24.726;2023-06-14T04:13:53;47669.00;;;-141.97;80.67
7018;BME280;3549;42.162;24.726;2023-06-14T04:16:21;47642.09;;;-141.97;80.46
7018;BME280;3549;42.162;24.726;2023-06-14T04:18:47;47678.63;;;-141.97;79.91
7018;BME280;3549;42.162;24.726;2023-06-14T04:21:13;47672.84;;;-141.97;79.55
7018;BME280;3549;42.162;24.726;2023-06-14T04:23:38;47638.25;;;-141.97;79.00
7018;BME280;3549;42.162;24.726;2023-06-14T04:26:04;47630.56;;;-141.97;79.08
7018;BME280;3549;42.162;24.726;2023-06-14T04:28:29;47580.59;;;-141.97;81.06
7018;BME280;3549;42.162;24.726;2023-06-14T04:30:55;47649.78;;;-141.97;81.76
7018;BME280;3549;42.162;24.726;2023-06-14T04:33:21;47655.53;;;-141.97;82.19
7018;BME280;3549;42.162;24.726;2023-06-14T04:35:48;47868.91;;;-141.97;82.23
7018;BME280;3549;42.162;24.726;2023-06-14T04:38:13;47667.06;;;-141.97;81.11
7018;BME280;3549;42.162;24.726;2023-06-14T04:40:40;47747.81;;;-141.97;80.33
7018;BME280;3549;42.162;24.726;2023-06-14T04:43:08;47630.56;;;-141.97;80.50
7018;BME280;3549;42.162;24.726;2023-06-14T04:45:37;47582.50;;;-141.97;80.47
7018;BME280;3549;42.162;24.726;2023-06-14T04:48:03;47884.28;;;-141.97;79.95
7018;BME280;3549;42.162;24.726;2023-06-14T04:50:28;47611.34;;;-141.97;80.01
7018;BME280;3549;42.162;24.726;2023-06-14T04:52:58;47638.25;;;-141.97;78.95
7018;BME280;3549;42.162;24.726;2023-06-14T04:55:25;47647.84;;;-141.97;77.95
7018;BME280;3549;42.162;24.726;2023-06-14T04:57:51;47695.91;;;-141.97;75.90
7018;BME280;3549;42.162;24.726;2023-06-14T05:00:19;47809.31;;;-141.97;75.89
7018;BME280;3549;42.162;24.726;2023-06-14T05:02:44;47686.31;;;-141.97;74.83
7018;BME280;3549;42.162;24.726;2023-06-14T05:05:12;47607.50;;;-141.97;73.91
7018;BME280;3549;42.162;24.726;2023-06-14T05:07:37;47653.63;;;-141.97;73.92
7018;BME280;3549;42.162;24.726;2023-06-14T05:10:03;47638.25;;;-141.97;73.25
7018;BME280;3549;42.162;24.726;2023-06-14T05:12:29;47826.63;;;-141.97;73.23
7018;BME280;3549;42.162;24.726;2023-06-14T05:14:54;47647.84;;;-141.97;73.47
7018;BME280;3549;42.162;24.726;2023-06-14T05:17:20;47815.09;;;-141.97;72.90
7018;BME280;3549;42.162;24.726;2023-06-14T05:19:45;47565.22;;;-141.97;71.66
7018;BME280;3549;42.162;24.726;2023-06-14T05:22:11;47603.66;;;-141.97;71.12
7018;BME280;3549;42.162;24.726;2023-06-14T05:24:37;47565.22;;;-141.97;70.58
7018;BME280;3549;42.162;24.726;2023-06-14T05:27:03;47617.09;;;-141.97;70.35
7018;BME280;3549;42.162;24.726;2023-06-14T05:29:32;47680.53;;;-141.97;70.62
7018;BME280;3549;42.162;24.726;2023-06-14T05:31:57;47584.44;;;-141.97;71.52
7018;BME280;3549;42.162;24.726;2023-06-14T05:34:26;47663.22;;;-141.97;71.52
7018;BME280;3549;42.162;24.726;2023-06-14T05:36:51;47788.19;;;-141.97;72.64
7018;BME280;3549;42.162;24.726;2023-06-14T05:39:26;47415.28;;;-141.97;75.65
7018;BME280;3549;42.162;24.726;2023-06-14T05:41:52;47613.25;;;-141.97;77.40
7018;BME280;3549;42.162;24.726;2023-06-14T05:44:17;47419.13;;;-141.97;76.83
7018;BME280;3549;42.162;24.726;2023-06-14T05:46:43;47501.78;;;-141.97;75.52
7018;BME280;3549;42.162;24.726;2023-06-14T05:49:08;47745.88;;;-141.97;75.23
7018;BME280;3549;42.162;24.726;2023-06-14T05:51:34;47903.50;;;-141.97;74.48
7018;BME280;3549;42.162;24.726;2023-06-14T05:54:00;47793.94;;;-141.97;75.21
7018;BME280;3549;42.162;24.726;2023-06-14T05:56:26;47630.56;;;-141.97;76.57
7018;BME280;3549;42.162;24.726;2023-06-14T05:58:51;47524.84;;;-141.97;75.75
7018;BME280;3549;42.162;24.726;2023-06-14T06:01:17;47592.13;;;-141.97;74.99
7018;BME280;3549;42.162;24.726;2023-06-14T06:03:43;47638.25;;;-141.97;74.23
7018;BME280;3549;42.162;24.726;2023-06-14T06:06:12;47413.38;;;-141.97;74.18
7018;BME280;3549;42.162;24.726;2023-06-14T06:08:38;47411.44;;;-141.97;74.20
7018;BME280;3549;42.162;24.726;2023-06-14T06:11:08;47772.78;;;-141.97;73.32
7018;BME280;3549;42.162;24.726;2023-06-14T06:13:33;47638.25;;;-141.97;73.65
7018;BME280;3549;42.162;24.726;2023-06-14T06:16:00;47492.16;;;-141.97;73.42
7018;BME280;3549;42.162;24.726;2023-06-14T06:18:25;47609.41;;;-141.97;73.27
7018;BME280;3549;42.162;24.726;2023-06-14T06:20:51;47469.09;;;-141.97;73.22
7018;BME280;3549;42.162;24.726;2023-06-14T06:23:23;47672.84;;;-141.97;71.98
7018;BME280;3549;42.162;24.726;2023-06-14T06:25:48;47401.84;;;-141.97;71.39
7018;BME280;3549;42.162;24.726;2023-06-14T06:28:14;47661.31;;;-141.97;71.23
7018;BME280;3549;42.162;24.726;2023-06-14T06:30:42;47778.56;;;-141.97;70.96
7018;BME280;3549;42.162;24.726;2023-06-14T06:33:08;47611.34;;;-141.97;70.52
7018;BME280;3549;42.162;24.726;2023-06-14T06:35:33;47699.75;;;-141.97;68.80
7018;BME280;3549;42.162;24.726;2023-06-14T06:37:59;47546.00;;;-141.97;67.92
7018;BME280;3549;42.162;24.726;2023-06-14T06:40:25;47540.22;;;-141.97;65.73
7018;BME280;3549;42.162;24.726;2023-06-14T06:42:51;47726.66;;;-141.97;66.95
7018;BME280;3549;42.162;24.726;2023-06-14T06:45:16;47415.28;;;-141.97;67.36
7018;BME280;3549;42.162;24.726;2023-06-14T06:47:41;47753.56;;;-141.97;66.68
7018;BME280;3549;42.162;24.726;2023-06-14T06:50:07;47780.47;;;-141.97;64.94
7018;BME280;3549;42.162;24.726;2023-06-14T06:52:34;47815.09;;;-141.97;65.84
7018;BME280;3549;42.162;24.726;2023-06-14T06:54:59;47834.31;;;-141.97;66.04
7018;BME280;3549;42.162;24.726;2023-06-14T06:57:25;47624.78;;;-141.97;64.86
7018;BME280;3549;42.162;24.726;2023-06-14T06:59:51;47453.72;;;-141.97;63.91
7018;BME280;3549;42.162;24.726;2023-06-14T07:02:18;47557.53;;;-141.97;63.01
7018;BME280;3549;42.162;24.726;2023-06-14T07:04:43;47365.31;;;-141.97;61.07
7018;BME280;3549;42.162;24.726;2023-06-14T07:07:12;47793.94;;;-141.97;60.26
7018;BME280;3549;42.162;24.726;2023-06-14T07:09:37;47749.72;;;-141.97;59.44
7018;BME280;3549;42.162;24.726;2023-06-14T07:12:03;47323.03;;;-141.97;59.22
7018;BME280;3549;42.162;24.726;2023-06-14T07:14:28;47717.06;;;-141.97;59.15
7018;BME280;3549;42.162;24.726;2023-06-14T07:16:55;47830.47;;;-141.97;59.25
7018;BME280;3549;42.162;24.726;2023-06-14T07:19:20;47424.91;;;-141.97;57.83
7018;BME280;3549;42.162;24.726;2023-06-14T07:21:46;47561.38;;;-141.97;57.46
7018;BME280;3549;42.162;24.726;2023-06-14T07:24:11;47728.59;;;-141.97;57.58
7018;BME280;3549;42.162;24.726;2023-06-14T07:26:37;47349.94;;;-141.97;57.83
7018;BME280;3549;42.162;24.726;2023-06-14T07:29:02;47561.38;;;-141.97;57.78
7018;BME280;3549;42.162;24.726;2023-06-14T07:31:28;47471.03;;;-141.97;58.07
7018;BME280;3549;42.162;24.726;2023-06-14T07:33:53;47676.69;;;-141.97;58.40
7018;BME280;3549;42.162;24.726;2023-06-14T07:36:19;47697.84;;;-141.97;58.68
7018;BME280;3549;42.162;24.726;2023-06-14T07:38:45;47592.13;;;-141.97;58.00
7018;BME280;3549;42.162;24.726;2023-06-14T07:41:11;47761.25;;;-141.97;57.67
7018;BME280;3549;42.162;24.726;2023-06-14T07:43:36;47603.66;;;-141.97;57.61
7018;BME280;3549;42.162;24.726;2023-06-14T07:46:02;47653.63;;;-141.97;58.84
7018;BME280;3549;42.162;24.726;2023-06-14T07:48:28;47367.25;;;-141.97;59.95
7018;BME280;3549;42.162;24.726;2023-06-14T07:50:53;47544.06;;;-141.97;58.26
7018;BME280;3549;42.162;24.726;2023-06-14T07:53:18;47284.59;;;-141.97;57.94
7018;BME280;3549;42.162;24.726;2023-06-14T07:55:44;47301.91;;;-141.97;58.21
7018;BME280;3549;42.162;24.726;2023-06-14T07:58:10;47757.41;;;-141.97;57.50
7018;BME280;3549;42.162;24.726;2023-06-14T08:00:36;47396.06;;;-141.97;57.80
7018;BME280;3549;42.162;24.726;2023-06-14T08:03:01;47471.03;;;-141.97;56.71
7018;BME280;3549;42.162;24.726;2023-06-14T08:05:28;47711.28;;;-141.97;56.11
7018;BME280;3549;42.162;24.726;2023-06-14T08:07:53;47669.00;;;-141.97;55.78
7018;BME280;3549;42.162;24.726;2023-06-14T08:10:20;47657.47;;;-141.97;54.65
7018;BME280;3549;42.162;24.726;2023-06-14T08:12:45;47309.59;;;-141.97;54.02
7018;BME280;3549;42.162;24.726;2023-06-14T08:15:11;47330.72;;;-141.97;54.72
7018;BME280;3549;42.162;24.726;2023-06-14T08:17:36;47351.88;;;-141.97;55.51
7018;BME280;3549;42.162;24.726;2023-06-14T08:20:03;47299.97;;;-141.97;56.19
7018;BME280;3549;42.162;24.726;2023-06-14T08:22:30;47373.00;;;-141.97;55.41
7018;BME280;3549;42.162;24.726;2023-06-14T08:24:57;47709.38;;;-141.97;55.21
7018;BME280;3549;42.162;24.726;2023-06-14T08:27:23;47603.66;;;-141.97;54.52
7018;BME280;3549;42.162;24.726;2023-06-14T08:29:49;47315.34;;;-141.97;53.52
7018;BME280;3549;42.162;24.726;2023-06-14T08:32:14;47378.78;;;-141.97;53.04
7018;BME280;3549;42.162;24.726;2023-06-14T08:34:39;47680.53;;;-141.97;51.87
7018;BME280;3549;42.162;24.726;2023-06-14T08:37:05;47663.22;;;-141.97;52.41
7018;BME280;3549;42.162;24.726;2023-06-14T08:39:31;47734.34;;;-141.97;52.22
7018;BME280;3549;42.162;24.726;2023-06-14T08:41:57;47522.91;;;-141.97;52.03
7018;BME280;3549;42.162;24.726;2023-06-14T08:44:23;47705.53;;;-141.97;51.27
7018;BME280;3549;42.162;24.726;2023-06-14T08:46:48;47336.50;;;-141.97;51.16
7018;BME280;3549;42.162;24.726;2023-06-14T08:49:16;47522.91;;;-141.97;50.89
7018;BME280;3549;42.162;24.726;2023-06-14T08:51:43;47540.22;;;-141.97;50.07
7018;BME280;3549;42.162;24.726;2023-06-14T08:54:10;47447.97;;;-141.97;50.55
7018;BME280;3549;42.162;24.726;2023-06-14T08:56:38;47315.34;;;-141.97;50.36
7018;BME280;3549;42.162;24.726;2023-06-14T08:59:07;47334.56;;;-141.97;50.28
7018;BME280;3549;42.162;24.726;2023-06-14T09:01:34;47503.69;;;-141.97;50.24
7018;BME280;3549;42.162;24.726;2023-06-14T09:04:00;47517.16;;;-141.97;49.43
7018;BME280;3549;42.162;24.726;2023-06-14T09:06:25;47603.66;;;-141.97;48.93
7018;BME280;3549;42.162;24.726;2023-06-14T09:08:54;47749.72;;;-141.97;51.22
7018;BME280;3549;42.162;24.726;2023-06-14T09:11:21;47273.06;;;-141.97;51.79
7018;BME280;3549;42.162;24.726;2023-06-14T09:13:47;47699.75;;;-141.97;52.39
7018;BME280;3549;42.162;24.726;2023-06-14T09:16:13;47367.25;;;-141.97;51.72
7018;BME280;3549;42.162;24.726;2023-06-14T09:18:41;47376.84;;;-141.97;51.57
7018;BME280;3549;42.162;24.726;2023-06-14T09:21:07;47765.09;;;-141.97;50.83
7018;BME280;3549;42.162;24.726;2023-06-14T09:23:37;47561.38;;;-141.97;51.53
7018;BME280;3549;42.162;24.726;2023-06-14T09:26:11;47453.72;;;-141.97;51.04
7018;BME280;3549;42.162;24.726;2023-06-14T09:28:47;47461.41;;;-141.97;50.52
7018;BME280;3549;42.162;24.726;2023-06-14T09:31:17;47469.09;;;-141.97;50.57
7018;BME280;3549;42.162;24.726;2023-06-14T09:33:51;47522.91;;;-141.97;51.33
7018;BME280;3549;42.162;24.726;2023-06-14T09:38:55;47546.00;;;-141.97;49.71
7018;BME280;3549;42.162;24.726;2023-06-14T09:41:39;47184.66;;;-141.97;50.00
7018;BME280;3549;42.162;24.726;2023-06-14T09:44:07;47357.63;;;-141.97;49.41
7018;BME280;3549;42.162;24.726;2023-06-14T09:46:34;47544.06;;;-141.97;49.29
7018;BME280;3549;42.162;24.726;2023-06-14T09:49:01;47276.91;;;-141.97;48.55
7018;BME280;3549;42.162;24.726;2023-06-14T09:51:28;47549.84;;;-141.97;49.04
7018;BME280;3549;42.162;24.726;2023-06-14T09:53:59;47551.75;;;-141.97;49.96
7018;BME280;3549;42.162;24.726;2023-06-14T09:56:31;47570.97;;;-141.97;49.60
7018;BME280;3549;42.162;24.726;2023-06-14T09:58:59;47630.56;;;-141.97;49.59
7018;BME280;3549;42.162;24.726;2023-06-14T10:01:26;47519.06;;;-141.97;48.95
7018;BME280;3549;42.162;24.726;2023-06-14T10:03:57;47522.91;;;-141.97;48.77
7018;BME280;3549;42.162;24.726;2023-06-14T10:06:28;47586.34;;;-141.97;48.67
7018;BME280;3549;42.162;24.726;2023-06-14T10:08:59;47446.03;;;-141.97;48.15
7018;BME280;3549;42.162;24.726;2023-06-14T10:11:27;47484.47;;;-141.97;48.24
7018;BME280;3549;42.162;24.726;2023-06-14T10:13:56;47426.81;;;-141.97;47.87
7018;BME280;3549;42.162;24.726;2023-06-14T10:16:52;47353.78;;;-141.97;47.83
7018;BME280;3549;42.162;24.726;2023-06-14T10:19:22;47496.00;;;-141.97;47.05
7018;BME280;3549;42.162;24.726;2023-06-14T10:22:08;47369.16;;;-141.97;47.26
7018;BME280;3549;42.162;24.726;2023-06-14T10:24:42;47503.69;;;-141.97;46.60
7018;BME280;3549;42.162;24.726;2023-06-14T10:27:08;47492.16;;;-141.97;46.92
7018;BME280;3549;42.162;24.726;2023-06-14T10:32:25;47632.47;;;-141.97;47.69
7018;BME280;3549;42.162;24.726;2023-06-14T10:34:59;47447.97;;;-141.97;48.23
7018;BME280;3549;42.162;24.726;2023-06-14T10:37:25;47546.00;;;-141.97;48.09
7018;BME280;3549;42.162;24.726;2023-06-14T10:39:51;47476.78;;;-141.97;48.09
7018;BME280;3549;42.162;24.726;2023-06-14T10:42:18;47724.75;;;-141.97;47.90
7018;BME280;3549;42.162;24.726;2023-06-14T10:44:51;47323.03;;;-141.97;47.43
7018;BME280;3549;42.162;24.726;2023-06-14T10:47:26;47482.56;;;-141.97;46.86
7018;BME280;3549;42.162;24.726;2023-06-14T10:49:56;47490.25;;;-141.97;48.73
7018;BME280;3549;42.162;24.726;2023-06-14T10:52:24;47478.72;;;-141.97;48.20
7018;BME280;3549;42.162;24.726;2023-06-14T10:57:26;47411.44;;;-141.97;48.73
7018;BME280;3549;42.162;24.726;2023-06-14T10:59:52;47461.41;;;-141.97;48.18
7018;BME280;3549;42.162;24.726;2023-06-14T11:05:27;47476.78;;;-141.97;47.73
7018;BME280;3549;42.162;24.726;2023-06-14T11:10:41;47497.94;;;-141.97;49.77
7018;BME280;3549;42.162;24.726;2023-06-14T11:13:07;47444.13;;;-141.97;51.10
7018;BME280;3549;42.162;24.726;2023-06-14T11:15:37;47522.91;;;-141.97;49.59
7018;BME280;3549;42.162;24.726;2023-06-14T11:18:05;47463.34;;;-141.97;48.45
7018;BME280;3549;42.162;24.726;2023-06-14T11:20:32;47476.78;;;-141.97;47.80
7018;BME280;3549;42.162;24.726;2023-06-14T11:22:59;47307.66;;;-141.97;48.24
7018;BME280;3549;42.162;24.726;2023-06-14T11:25:26;47507.53;;;-141.97;47.06
7018;BME280;3549;42.162;24.726;2023-06-14T11:27:53;47267.31;;;-141.97;47.80
7018;BME280;3549;42.162;24.726;2023-06-14T11:30:19;47553.69;;;-141.97;47.21
7018;BME280;3549;42.162;24.726;2023-06-14T11:32:52;47501.78;;;-141.97;47.36
7018;BME280;3549;42.162;24.726;2023-06-14T11:35:21;47492.16;;;-141.97;46.82
7018;BME280;3549;42.162;24.726;2023-06-14T11:37:49;47584.44;;;-141.97;47.01
7018;BME280;3549;42.162;24.726;2023-06-14T11:40:17;47486.41;;;-141.97;44.91
7018;BME280;3549;42.162;24.726;2023-06-14T11:42:42;47538.28;;;-141.97;44.44
7018;BME280;3549;42.162;24.726;2023-06-14T11:45:09;47465.25;;;-141.97;42.75
7018;BME280;3549;42.162;24.726;2023-06-14T11:47:35;47428.75;;;-141.97;41.93
7018;BME280;3549;42.162;24.726;2023-06-14T11:50:05;47403.75;;;-141.97;41.36
7018;BME280;3549;42.162;24.726;2023-06-14T11:52:31;47407.59;;;-141.97;39.65
7018;BME280;3549;42.162;24.726;2023-06-14T11:54:57;47363.41;;;-141.97;39.79
7018;BME280;3549;42.162;24.726;2023-06-14T11:57:25;47353.78;;;-141.97;37.84
7018;BME280;3549;42.162;24.726;2023-06-14T11:59:51;47234.63;;;-141.97;37.02
7018;BME280;3549;42.162;24.726;2023-06-14T12:02:18;47378.78;;;-141.97;37.57
7018;BME280;3549;42.162;24.726;2023-06-14T12:04:47;47332.66;;;-141.97;36.38
7018;BME280;3549;42.162;24.726;2023-06-14T12:07:15;47323.03;;;-141.97;36.59
7018;BME280;3549;42.162;24.726;2023-06-14T12:10:04;47301.91;;;-141.97;36.70
7018;BME280;3549;42.162;24.726;2023-06-14T12:12:35;47346.09;;;-141.97;36.73
7018;BME280;3549;42.162;24.726;2023-06-14T12:15:03;47303.81;;;-141.97;37.73
7018;BME280;3549;42.162;24.726;2023-06-14T12:17:32;47296.13;;;-141.97;36.53
7018;BME280;3549;42.162;24.726;2023-06-14T12:19:57;47353.78;;;-141.97;38.20
7018;BME280;3549;42.162;24.726;2023-06-14T12:22:23;47371.09;;;-141.97;38.64
7018;BME280;3549;42.162;24.726;2023-06-14T12:24:48;47276.91;;;-141.97;39.83
7018;BME280;3549;42.162;24.726;2023-06-14T12:27:14;47398.00;;;-141.97;38.68
7018;BME280;3549;42.162;24.726;2023-06-14T12:29:45;47303.81;;;-141.97;39.03
7018;BME280;3549;42.162;24.726;2023-06-14T12:32:11;47138.53;;;-141.97;38.21
7018;BME280;3549;42.162;24.726;2023-06-14T12:34:37;47636.31;;;-141.97;37.31
7018;BME280;3549;42.162;24.726;2023-06-14T12:37:02;47278.84;;;-141.97;36.63
7018;BME280;3549;42.162;24.726;2023-06-14T12:39:31;47046.28;;;-141.97;36.14
7018;BME280;3549;42.162;24.726;2023-06-14T12:41:58;47213.50;;;-141.97;34.94
7018;BME280;3549;42.162;24.726;2023-06-14T12:44:23;47219.25;;;-141.97;34.65
7018;BME280;3549;42.162;24.726;2023-06-14T12:46:49;47096.25;;;-141.97;34.12
7018;BME280;3549;42.162;24.726;2023-06-14T12:49:16;47100.09;;;-141.97;34.13
7018;BME280;3549;42.162;24.726;2023-06-14T12:51:42;47253.84;;;-141.97;35.33
7018;BME280;3549;42.162;24.726;2023-06-14T12:54:07;47649.78;;;-141.97;39.05
7018;BME280;3549;42.162;24.726;2023-06-14T12:56:33;47315.34;;;-141.97;40.17
7018;BME280;3549;42.162;24.726;2023-06-14T12:58:59;47378.78;;;-141.97;39.51
7018;BME280;3549;42.162;24.726;2023-06-14T13:01:24;47390.31;;;-141.97;38.76
7018;BME280;3549;42.162;24.726;2023-06-14T13:03:51;47234.63;;;-141.97;36.98
7018;BME280;3549;42.162;24.726;2023-06-14T13:06:21;47376.84;;;-141.97;38.34
7018;BME280;3549;42.162;24.726;2023-06-14T13:08:47;47357.63;;;-141.97;39.76
7018;BME280;3549;42.162;24.726;2023-06-14T13:11:13;47346.09;;;-141.97;39.87